Mont Saint Michel — FNMT — position and weather

sailwx.info

Track history (hours):
 
Tides and Currents Weather Stations Pressure Air Temp Water Temp Dewpoint Dewpoint Depression Visibility Wind Speed Wind Dir Waves Ship Positions

Mont Saint Michel

Last reported at 2018-Dec-13 14:00 UTC. Time now 2018-Dec-13 14:20 UTC.
Position N 49°17' W 000°15'.

Length 173 m; beam 29 m.

Type: Ship. MMSI: 227023100.

Date/timePositionNaut miles runAvg speedWind from/ knotsBaromVisibWave heightAir tempDewpointWater temp
2018-Dec-13 14:00N 49°17' W 000°15'3 6.3
2018-Dec-13 13:31N 49°20' W 000°15'1019.5
2018-Dec-13 13:01N 49°30' W 000°18'1019.8
2018-Dec-13 12:31N 49°39' W 000°23'1020.1
2018-Dec-13 12:01N 49°49' W 000°28'1020.4
2018-Dec-13 11:30N 49°58' W 000°34'1020.5
2018-Dec-13 11:01N 50°08' W 000°40'1520.1
2018-Dec-13 10:17N 50°21' W 000°48'519.6
2018-Dec-13 10:01N 50°26' W 000°51'1019.6
2018-Dec-13 09:31N 50°36' W 000°57'816.9
2018-Dec-13 09:01N 50°43' W 001°02'612.0
2018-Dec-13 08:30N 50°49' W 001°06'0 0.5
2018-Dec-13 08:00N 50°49' W 001°06'0 0.0
2018-Dec-13 07:30N 50°49' W 001°06'0 0.0
2018-Dec-13 07:00N 50°49' W 001°06'1 1.8
2018-Dec-13 06:30N 50°48' W 001°07'611.8
2018-Dec-13 06:00N 50°43' W 001°02'816.4
2018-Dec-13 05:30N 50°35' W 000°59'814.9
2018-Dec-13 04:58N 50°27' W 000°56'715.0
2018-Dec-13 04:30N 50°20' W 000°53'815.7
2018-Dec-13 04:00N 50°14' W 000°47'815.9
2018-Dec-13 03:30N 50°07' W 000°41'714.2
2018-Dec-13 03:00N 50°00' W 000°37'611.1
2018-Dec-13 02:30N 49°55' W 000°34'611.0
2018-Dec-13 02:00N 49°50' W 000°31'510.9
2018-Dec-13 01:30N 49°45' W 000°28'510.8
2018-Dec-13 01:00N 49°40' W 000°25'510.9
2018-Dec-13 00:30N 49°35' W 000°22'510.9
2018-Dec-13 00:00N 49°30' W 000°19'510.7
2018-Dec-12 23:30N 49°25' W 000°17'510.1
2018-Dec-12 23:00N 49°20' W 000°14'2 4.7
2018-Dec-12 22:30N 49°17' W 000°15'0 0.0
2018-Dec-12 22:00N 49°17' W 000°15'0 0.0
2018-Dec-12 21:30N 49°17' W 000°15'0 0.0
2018-Dec-12 21:00N 49°17' W 000°15'0 0.0
2018-Dec-12 20:31N 49°17' W 000°15'4 8.8
2018-Dec-12 20:01N 49°22' W 000°15'1019.6
2018-Dec-12 19:31N 49°31' W 000°19'1019.8
2018-Dec-12 19:01N 49°40' W 000°25'1019.6
2018-Dec-12 18:30N 49°49' W 000°30'1019.4
2018-Dec-12 18:00N 49°59' W 000°36'1019.4
2018-Dec-12 17:31N 50°08' W 000°41'1519.4
2018-Dec-12 16:45N 50°21' W 000°50'519.8
2018-Dec-12 16:30N 50°26' W 000°53'919.2
2018-Dec-12 16:01N 50°35' W 000°57'918.0
2018-Dec-12 15:31N 50°43' W 001°02'612.2
2018-Dec-12 15:00N 50°49' W 001°07'1 1.1
2018-Dec-12 14:30N 50°49' W 001°06'0 0.0
2018-Dec-12 14:00N 50°49' W 001°06'0 0.0
2018-Dec-12 13:30N 50°49' W 001°06'1 2.5
2018-Dec-12 13:00N 50°48' W 001°07'510.3
2018-Dec-12 12:30N 50°43' W 001°02'816.6
2018-Dec-12 12:01N 50°36' W 000°57'918.3
2018-Dec-12 11:31N 50°27' W 000°51'1418.9
2018-Dec-12 10:46N 50°14' W 000°45'519.3
2018-Dec-12 10:31N 50°09' W 000°43'1020.7
2018-Dec-12 10:01N 49°59' W 000°38'1020.5
2018-Dec-12 09:30N 49°50' W 000°33'1020.5
2018-Dec-12 09:01N 49°40' W 000°27'1020.5
2018-Dec-12 08:31N 49°31' W 000°20'1020.5
2018-Dec-12 08:01N 49°21' W 000°15'4 7.7
2018-Dec-12 07:30N 49°17' W 000°15'0 0.0
2018-Dec-12 07:00N 49°17' W 000°15'0 0.0
2018-Dec-12 06:30N 49°17' W 000°15'0 0.0
2018-Dec-12 06:00N 49°17' W 000°15'0 0.3
2018-Dec-12 05:30N 49°17' W 000°15'713.9
2018-Dec-12 05:01N 49°24' W 000°17'714.7
2018-Dec-12 04:31N 49°31' W 000°22'815.0
2018-Dec-12 04:01N 49°38' W 000°26'817.0
2018-Dec-12 03:31N 49°46' W 000°30'917.1
2018-Dec-12 03:01N 49°54' W 000°34'917.4
2018-Dec-12 02:30N 50°02' W 000°39'1317.7
2018-Dec-12 01:47N 50°15' W 000°45'715.5
2018-Dec-12 01:19N 50°21' W 000°48'514.5
2018-Dec-12 01:00N 50°26' W 000°50'714.7
2018-Dec-12 00:31N 50°33' W 000°54'714.3
2018-Dec-12 00:01N 50°39' W 000°59'713.1
2018-Dec-11 23:30N 50°44' W 001°05'4 8.5
2018-Dec-11 23:00N 50°49' W 001°06'0 0.0
2018-Dec-11 22:30N 50°49' W 001°06'0 0.0
2018-Dec-11 22:00N 50°49' W 001°06'0 0.0
2018-Dec-11 21:30N 50°49' W 001°06'1 1.6
2018-Dec-11 21:00N 50°48' W 001°07'612.0
2018-Dec-11 20:30N 50°43' W 001°02'714.5
2018-Dec-11 20:00N 50°37' W 000°57'816.3
2018-Dec-11 19:30N 50°29' W 000°53'916.6
2018-Dec-11 18:58N 50°20' W 000°49'919.5
2018-Dec-11 18:30N 50°12' W 000°45'1019.7
2018-Dec-11 18:00N 50°02' W 000°41'1020.0
2018-Dec-11 17:30N 49°53' W 000°35'1020.1
2018-Dec-11 17:00N 49°44' W 000°29'1019.9
2018-Dec-11 16:30N 49°34' W 000°23'1019.6
2018-Dec-11 16:00N 49°25' W 000°17'816.4
2018-Dec-11 15:30N 49°17' W 000°15'0 0.2
2018-Dec-11 15:01N 49°17' W 000°15'0 0.0
2018-Dec-11 14:31N 49°17' W 000°15'0 0.0
2018-Dec-11 14:01N 49°17' W 000°15'0 0.2
2018-Dec-11 13:31N 49°17' W 000°15'816.7
2018-Dec-11 13:00N 49°26' W 000°16'918.9
2018-Dec-11 12:31N 49°34' W 000°21'1019.2
2018-Dec-11 12:01N 49°43' W 000°28'1019.0
2018-Dec-11 11:30N 49°52' W 000°34'1019.3
2018-Dec-11 11:00N 50°00' W 000°41'1020.7
2018-Dec-11 10:31N 50°09' W 000°48'1218.2
2018-Dec-11 09:49N 50°22' W 000°52'618.9
2018-Dec-11 09:31N 50°27' W 000°55'1020.0
2018-Dec-11 09:01N 50°37' W 000°59'816.8
2018-Dec-11 08:31N 50°45' W 001°05'4 8.4
2018-Dec-11 08:00N 50°49' W 001°06'0 0.0
2018-Dec-11 07:30N 50°49' W 001°06'0 0.0
2018-Dec-11 07:00N 50°49' W 001°06'0 0.7
2018-Dec-11 06:30N 50°49' W 001°06'611.1
2018-Dec-11 06:00N 50°44' W 001°02'816.4
2018-Dec-11 05:30N 50°36' W 000°58'612.6
2018-Dec-11 05:00N 50°30' W 000°55'611.8
2018-Dec-11 04:30N 50°24' W 000°53'611.7
2018-Dec-11 03:59N 50°18' W 000°50'612.2
2018-Dec-11 03:28N 50°12' W 000°47'612.5
2018-Dec-11 03:00N 50°07' W 000°43'612.6
2018-Dec-11 02:31N 50°02' W 000°38'612.3
2018-Dec-11 02:00N 49°56' W 000°34'612.1
2018-Dec-11 01:30N 49°50' W 000°31'611.8
2018-Dec-11 01:00N 49°45' W 000°29'611.6
2018-Dec-11 00:30N 49°39' W 000°26'611.4
2018-Dec-11 00:00N 49°34' W 000°22'611.3
2018-Dec-10 23:30N 49°29' W 000°19'510.2
2018-Dec-10 23:00N 49°24' W 000°16'510.8
2018-Dec-10 22:31N 49°19' W 000°15'1 2.9
2018-Dec-10 22:00N 49°17' W 000°15'0 0.0
2018-Dec-10 21:30N 49°17' W 000°15'0 0.0
2018-Dec-10 21:00N 49°17' W 000°15'713.7
2018-Dec-10 20:30N 49°24' W 000°15'1122.3
2018-Dec-10 20:00N 49°34' W 000°23'1121.2
2018-Dec-10 19:30N 49°45' W 000°25'1121.6
2018-Dec-10 19:00N 49°55' W 000°31'1121.2
2018-Dec-10 18:30N 50°04' W 000°38'1521.1
2018-Dec-10 17:48N 50°19' W 000°45'621.5
2018-Dec-10 17:30N 50°25' W 000°48'1021.1
2018-Dec-10 17:00N 50°35' W 000°53'1020.1
2018-Dec-10 16:30N 50°43' W 001°01'612.4
2018-Dec-10 16:00N 50°49' W 001°06'0 0.1
2018-Dec-10 15:30N 50°49' W 001°06'0 0.0
2018-Dec-10 15:00N 50°49' W 001°06'0 0.0
2018-Dec-10 14:30N 50°49' W 001°06'0 0.0
2018-Dec-10 14:00N 50°49' W 001°06'0 0.0
2018-Dec-10 13:30N 50°49' W 001°06'0 0.8
2018-Dec-10 13:00N 50°49' W 001°06'612.0
2018-Dec-10 12:31N 50°43' W 001°02'918.7
2018-Dec-10 12:00N 50°35' W 000°55'1020.0
2018-Dec-10 11:30N 50°26' W 000°49'1320.0
2018-Dec-10 10:52N 50°14' W 000°42'719.6
2018-Dec-10 10:30N 50°07' W 000°38'1019.8
2018-Dec-10 10:00N 49°58' W 000°34'1019.7
2018-Dec-10 09:31N 49°48' W 000°29'1019.6
2018-Dec-10 09:00N 49°39' W 000°24'1019.5
2018-Dec-10 08:30N 49°30' W 000°19'918.8
2018-Dec-10 08:00N 49°21' W 000°15'4 7.5
2018-Dec-10 07:30N 49°17' W 000°15'0 0.0
2018-Dec-10 07:00N 49°17' W 000°15'0 0.0
2018-Dec-10 06:30N 49°17' W 000°15'0 0.0
2018-Dec-10 06:00N 49°17' W 000°15'0 0.2
2018-Dec-10 05:30N 49°17' W 000°15'815.4
2018-Dec-10 05:00N 49°25' W 000°16'918.3
2018-Dec-10 04:30N 49°33' W 000°22'918.0
2018-Dec-10 04:00N 49°41' W 000°28'917.5
2018-Dec-10 03:30N 49°49' W 000°34'1717.1
2018-Dec-10 02:30N 50°04' W 000°46'1614.9
2018-Dec-10 01:24N 50°19' W 000°58'715.3
2018-Dec-10 00:57N 50°26' W 001°01'715.2
2018-Dec-10 00:30N 50°32' W 001°05'713.6
2018-Dec-10 00:00N 50°39' W 001°05'611.7
2018-Dec-09 23:30N 50°45' W 001°05'4 8.0
2018-Dec-09 23:00N 50°49' W 001°06'0 0.0
2018-Dec-09 22:30N 50°49' W 001°06'0 0.0
2018-Dec-09 22:00N 50°49' W 001°06'1 1.5
2018-Dec-09 21:30N 50°48' W 001°07'713.5
2018-Dec-09 21:01N 50°43' W 001°00'816.9
2018-Dec-09 20:31N 50°35' W 000°57'1118.9
2018-Dec-09 19:56N 50°25' W 000°53'918.9
2018-Dec-09 19:29N 50°16' W 000°49'918.8
2018-Dec-09 19:01N 50°08' W 000°46'918.9
2018-Dec-09 18:30N 49°58' W 000°43'1119.0
2018-Dec-09 17:56N 49°48' W 000°39'819.0
2018-Dec-09 17:31N 49°40' W 000°34'1019.4
2018-Dec-09 17:00N 49°32' W 000°26'1019.6
2018-Dec-09 16:31N 49°24' W 000°17'714.2
2018-Dec-09 16:00N 49°17' W 000°15'0 0.1
2018-Dec-09 15:31N 49°17' W 000°15'0 0.0
2018-Dec-09 15:01N 49°17' W 000°15'0 0.0
2018-Dec-09 14:31N 49°17' W 000°15'3 5.9
2018-Dec-09 14:01N 49°20' W 000°14'816.8
2018-Dec-09 13:31N 49°28' W 000°17'816.8
2018-Dec-09 13:00N 49°37' W 000°19'917.9
2018-Dec-09 12:31N 49°46' W 000°22'918.4
2018-Dec-09 12:00N 49°54' W 000°26'2719.4
2018-Dec-09 10:36N 50°18' W 000°46'1120.2
2018-Dec-09 10:04N 50°26' W 000°58'120.3
2018-Dec-09 10:00N 50°27' W 000°60'1019.2
2018-Dec-09 09:31N 50°35' W 001°07'714.1
2018-Dec-09 09:01N 50°41' W 001°03'714.3
2018-Dec-09 08:30N 50°48' W 001°07'1 2.0
2018-Dec-09 08:00N 50°49' W 001°06'0 0.0
2018-Dec-09 07:30N 50°49' W 001°06'0 0.0
2018-Dec-09 07:00N 50°49' W 001°06'0 0.7
2018-Dec-09 06:30N 50°49' W 001°06'611.4
2018-Dec-09 06:00N 50°44' W 001°02'815.6
2018-Dec-09 05:30N 50°36' W 000°59'816.2
2018-Dec-09 05:00N 50°28' W 001°01'916.1
2018-Dec-09 04:27N 50°19' W 001°01'716.1
2018-Dec-09 04:00N 50°12' W 001°03'714.7
2018-Dec-09 03:30N 50°05' W 001°04'713.4
2018-Dec-09 03:00N 49°58' W 001°06'713.9
2018-Dec-09 02:30N 49°51' W 001°08'714.2
2018-Dec-09 02:01N 49°44' W 001°09'713.8
2018-Dec-09 01:31N 49°40' W 001°00'713.6
2018-Dec-09 00:59N 49°37' W 000°51'612.9
2018-Dec-09 00:30N 49°34' W 000°42'612.3
2018-Dec-09 00:00N 49°32' W 000°33'611.9
2018-Dec-08 23:30N 49°28' W 000°26'611.8
2018-Dec-08 23:00N 49°24' W 000°19'612.3
2018-Dec-08 22:30N 49°19' W 000°15'1 2.9
2018-Dec-08 22:00N 49°17' W 000°15'0 0.0
2018-Dec-08 21:30N 49°17' W 000°15'0 0.0
2018-Dec-08 21:00N 49°17' W 000°15'0 0.0
2018-Dec-08 20:30N 49°17' W 000°15'2 3.4
2018-Dec-08 20:00N 49°19' W 000°15'918.6
2018-Dec-08 19:30N 49°27' W 000°21'1019.6
2018-Dec-08 19:00N 49°37' W 000°24'1020.1
2018-Dec-08 18:30N 49°46' W 000°31'1320.1
2018-Dec-08 17:51N 49°58' W 000°39'720.0
2018-Dec-08 17:30N 50°04' W 000°43'1720.0
2018-Dec-08 16:41N 50°20' W 000°54'420.0
2018-Dec-08 16:27N 50°24' W 000°56'919.6
2018-Dec-08 16:00N 50°32' W 001°02'1019.0
2018-Dec-08 15:31N 50°41' W 000°59'816.4
2018-Dec-08 15:00N 50°48' W 001°07'1 2.1
2018-Dec-08 14:30N 50°49' W 001°06'0 0.0
2018-Dec-08 14:00N 50°49' W 001°06'0 0.0
2018-Dec-08 13:30N 50°49' W 001°06'1 2.3
2018-Dec-08 13:00N 50°48' W 001°07'816.2
2018-Dec-08 12:30N 50°41' W 000°60'1019.7
2018-Dec-08 12:01N 50°32' W 000°54'1019.4
2018-Dec-08 11:30N 50°23' W 000°47'1019.3
2018-Dec-08 11:01N 50°14' W 000°42'918.4
2018-Dec-08 10:31N 50°05' W 000°37'918.0
2018-Dec-08 10:00N 49°57' W 000°33'917.7
2018-Dec-08 09:30N 49°48' W 000°29'918.4
2018-Dec-08 09:00N 49°39' W 000°25'918.8
2018-Dec-08 08:31N 49°31' W 000°20'918.8
2018-Dec-08 08:00N 49°22' W 000°15'4 8.9
2018-Dec-08 07:30N 49°17' W 000°15'0 0.0
2018-Dec-08 07:00N 49°17' W 000°15'0 0.0
2018-Dec-08 06:31N 49°17' W 000°15'0 0.0
2018-Dec-08 06:00N 49°17' W 000°15'0 0.2
2018-Dec-08 05:31N 49°17' W 000°15'714.0
2018-Dec-08 05:00N 49°24' W 000°15'816.5
2018-Dec-08 04:30N 49°32' W 000°19'816.4
2018-Dec-08 04:00N 49°40' W 000°23'816.3
2018-Dec-08 03:30N 49°47' W 000°28'816.0
2018-Dec-08 03:00N 49°55' W 000°33'714.5
2018-Dec-08 02:30N 50°02' W 000°37'613.2
2018-Dec-08 02:00N 50°08' W 000°40'2213.2
2018-Dec-08 00:23N 50°27' W 000°56'512.9
2018-Dec-08 00:00N 50°30' W 001°01'612.8
2018-Dec-07 23:30N 50°35' W 001°07'713.6
2018-Dec-07 23:00N 50°42' W 001°03'612.4
2018-Dec-07 22:30N 50°47' W 001°07'1 3.0
2018-Dec-07 22:00N 50°49' W 001°06'0 0.0
2018-Dec-07 21:30N 50°49' W 001°06'0 0.0
2018-Dec-07 21:00N 50°49' W 001°06'0 0.0
2018-Dec-07 20:30N 50°49' W 001°06'0 0.0
2018-Dec-07 20:00N 50°49' W 001°06'0 0.0
2018-Dec-07 19:30N 50°49' W 001°06'0 0.8
2018-Dec-07 19:00N 50°49' W 001°06'510.8
2018-Dec-07 18:30N 50°44' W 001°03'815.9
2018-Dec-07 18:00N 50°37' W 000°57'816.1
2018-Dec-07 17:30N 50°29' W 000°51'917.1
2018-Dec-07 17:00N 50°22' W 000°46'919.0
2018-Dec-07 16:30N 50°12' W 000°44'1019.0
2018-Dec-07 16:00N 50°03' W 000°39'1019.1
2018-Dec-07 15:30N 49°54' W 000°34'917.6
2018-Dec-07 15:00N 49°46' W 000°30'917.2
2018-Dec-07 14:30N 49°38' W 000°25'917.3
2018-Dec-07 14:00N 49°30' W 000°20'917.8
2018-Dec-07 13:30N 49°22' W 000°15'4 8.6
2018-Dec-07 13:00N 49°17' W 000°15'0 0.0
2018-Dec-07 12:30N 49°17' W 000°15'0 0.0
2018-Dec-07 12:00N 49°17' W 000°15'0 0.0
2018-Dec-07 11:30N 49°17' W 000°15'0 0.0
2018-Dec-07 11:00N 49°17' W 000°15'0 0.0
2018-Dec-07 10:30N 49°17' W 000°15'0 0.0
2018-Dec-07 10:00N 49°17' W 000°15'0 0.0
2018-Dec-07 09:30N 49°17' W 000°15'0 0.0
2018-Dec-07 09:00N 49°17' W 000°15'0 0.0
2018-Dec-07 08:30N 49°17' W 000°15'0 0.0
2018-Dec-07 08:00N 49°17' W 000°15'0 0.0
2018-Dec-07 07:30N 49°17' W 000°15'0 0.0
2018-Dec-07 07:00N 49°17' W 000°15'0 0.0
2018-Dec-07 06:30N 49°17' W 000°15'2 4.0
2018-Dec-07 06:01N 49°19' W 000°15'714.7
2018-Dec-07 05:30N 49°27' W 000°17'714.4
2018-Dec-07 05:00N 49°33' W 000°22'714.4
2018-Dec-07 04:30N 49°39' W 000°27'714.1
2018-Dec-07 04:00N 49°46' W 000°32'713.9
2018-Dec-07 03:31N 49°52' W 000°37'1413.9
2018-Dec-07 02:30N 50°05' W 000°45'2114.0
2018-Dec-07 01:02N 50°24' W 000°59'213.7
2018-Dec-07 00:55N 50°25' W 000°60'613.8
2018-Dec-07 00:30N 50°30' W 001°04'714.1
2018-Dec-07 00:00N 50°37' W 001°07'713.3
2018-Dec-06 23:30N 50°43' W 001°03'611.8
2018-Dec-06 23:00N 50°48' W 001°07'1 2.0
2018-Dec-06 22:30N 50°49' W 001°06'0 0.0
2018-Dec-06 22:00N 50°49' W 001°06'0 0.0
2018-Dec-06 21:30N 50°49' W 001°06'1 1.7
2018-Dec-06 21:00N 50°48' W 001°07'714.9
2018-Dec-06 20:30N 50°42' W 001°00'1019.7
2018-Dec-06 20:00N 50°32' W 000°56'1019.3
2018-Dec-06 19:30N 50°23' W 000°52'1019.6
2018-Dec-06 19:00N 50°14' W 000°48'1019.2
2018-Dec-06 18:30N 50°04' W 000°45'918.3
2018-Dec-06 18:00N 49°56' W 000°38'918.1
2018-Dec-06 17:30N 49°48' W 000°33'918.5
2018-Dec-06 17:00N 49°39' W 000°28'918.8
2018-Dec-06 16:30N 49°31' W 000°22'1019.1
2018-Dec-06 16:00N 49°22' W 000°15'5 9.6
2018-Dec-06 15:30N 49°17' W 000°15'0 0.0
2018-Dec-06 15:01N 49°17' W 000°15'0 0.0
2018-Dec-06 14:31N 49°17' W 000°15'0 0.0
2018-Dec-06 14:00N 49°17' W 000°15'2 4.6
2018-Dec-06 13:30N 49°20' W 000°14'917.8
2018-Dec-06 13:01N 49°28' W 000°17'917.7
2018-Dec-06 12:30N 49°36' W 000°23'918.6
2018-Dec-06 12:00N 49°45' W 000°30'1019.4
2018-Dec-06 11:30N 49°53' W 000°37'1019.8
2018-Dec-06 11:00N 50°02' W 000°42'1120.0
2018-Dec-06 10:28N 50°13' W 000°47'1219.9
2018-Dec-06 09:50N 50°25' W 000°52'720.2
2018-Dec-06 09:30N 50°31' W 000°56'1019.3
2018-Dec-06 09:00N 50°40' W 000°59'816.7
2018-Dec-06 08:30N 50°47' W 001°07'1 2.7
2018-Dec-06 08:00N 50°49' W 001°06'0 0.0
2018-Dec-06 07:30N 50°49' W 001°06'0 0.0
2018-Dec-06 07:00N 50°49' W 001°06'1 2.4
2018-Dec-06 06:30N 50°48' W 001°07'612.2
2018-Dec-06 06:00N 50°43' W 001°00'816.2
2018-Dec-06 05:31N 50°35' W 000°57'611.1
2018-Dec-06 05:00N 50°30' W 000°54'510.4
2018-Dec-06 04:30N 50°25' W 000°51'610.9
2018-Dec-06 03:58N 50°20' W 000°48'511.1
2018-Dec-06 03:30N 50°15' W 000°45'1111.3
2018-Dec-06 02:30N 50°04' W 000°39'510.9
2018-Dec-06 02:00N 49°59' W 000°37'611.1
2018-Dec-06 01:30N 49°54' W 000°35'611.4
2018-Dec-06 01:01N 49°48' W 000°32'611.7
2018-Dec-06 00:30N 49°43' W 000°28'611.6
2018-Dec-06 00:00N 49°38' W 000°25'611.4
2018-Dec-05 23:30N 49°32' W 000°21'611.3
2018-Dec-05 23:00N 49°27' W 000°17'611.1
2018-Dec-05 22:30N 49°22' W 000°15'5 9.2
2018-Dec-05 22:00N 49°17' W 000°15'0 0.0
2018-Dec-05 21:30N 49°17' W 000°15'0 0.0
2018-Dec-05 21:00N 49°17' W 000°15'0 0.0
2018-Dec-05 20:30N 49°17' W 000°15'3 7.0
2018-Dec-05 20:00N 49°21' W 000°14'918.0
2018-Dec-05 19:30N 49°30' W 000°15'917.9
2018-Dec-05 19:00N 49°38' W 000°21'918.6
2018-Dec-05 18:30N 49°47' W 000°27'918.9
2018-Dec-05 18:00N 49°55' W 000°32'1019.4
2018-Dec-05 17:30N 50°04' W 000°38'1219.2
2018-Dec-05 16:54N 50°15' W 000°46'1018.6
2018-Dec-05 16:23N 50°24' W 000°51'718.4
2018-Dec-05 16:00N 50°30' W 000°54'917.9
2018-Dec-05 15:30N 50°39' W 000°58'816.2
2018-Dec-05 15:01N 50°46' W 001°05'3 6.1
2018-Dec-05 14:30N 50°49' W 001°06'0 0.0
2018-Dec-05 14:00N 50°49' W 001°06'0 0.0
2018-Dec-05 13:30N 50°49' W 001°06'1 1.9
2018-Dec-05 13:00N 50°48' W 001°07'612.6
2018-Dec-05 12:30N 50°43' W 001°02'917.8
2018-Dec-05 12:00N 50°34' W 000°57'1019.2
2018-Dec-05 11:30N 50°25' W 000°51'1118.5
2018-Dec-05 10:56N 50°15' W 000°48'818.8
2018-Dec-05 10:30N 50°07' W 000°44'919.0
2018-Dec-05 10:00N 49°59' W 000°37'918.9
2018-Dec-05 09:30N 49°50' W 000°32'918.7
2018-Dec-05 09:00N 49°42' W 000°26'918.7
2018-Dec-05 08:30N 49°33' W 000°21'918.6
2018-Dec-05 08:00N 49°24' W 000°16'713.8
2018-Dec-05 07:30N 49°17' W 000°15'0 0.1
2018-Dec-05 07:00N 49°17' W 000°15'0 0.0
2018-Dec-05 06:30N 49°17' W 000°15'0 0.0
2018-Dec-05 06:00N 49°17' W 000°15'0 0.2
2018-Dec-05 05:30N 49°17' W 000°15'816.6
2018-Dec-05 05:00N 49°26' W 000°15'1019.1
2018-Dec-05 04:30N 49°35' W 000°20'918.8
2018-Dec-05 04:01N 49°43' W 000°26'917.4
2018-Dec-05 03:30N 49°51' W 000°32'714.8
2018-Dec-05 03:00N 49°58' W 000°36'714.4
2018-Dec-05 02:30N 50°04' W 000°41'814.3
2018-Dec-05 01:58N 50°11' W 000°46'1214.7
2018-Dec-05 01:11N 50°23' W 000°51'314.2
2018-Dec-05 01:00N 50°25' W 000°52'713.7
2018-Dec-05 00:30N 50°32' W 000°55'713.7
2018-Dec-05 00:00N 50°38' W 000°58'713.1
2018-Dec-04 23:30N 50°44' W 001°03'5 9.1
2018-Dec-04 23:00N 50°48' W 001°07'1 2.2
2018-Dec-04 22:30N 50°49' W 001°06'0 0.0
2018-Dec-04 22:00N 50°49' W 001°06'0 0.0
2018-Dec-04 21:30N 50°49' W 001°06'1 1.9
2018-Dec-04 21:00N 50°48' W 001°07'5 9.2
2018-Dec-04 20:30N 50°44' W 001°04'918.1
2018-Dec-04 20:01N 50°36' W 000°57'917.7
2018-Dec-04 19:30N 50°28' W 000°51'1519.7
2018-Dec-04 18:46N 50°14' W 000°43'519.7
2018-Dec-04 18:30N 50°09' W 000°40'1019.4
2018-Dec-04 18:00N 50°00' W 000°35'1019.3
2018-Dec-04 17:30N 49°51' W 000°30'1019.7
2018-Dec-04 17:00N 49°42' W 000°25'1019.9
2018-Dec-04 16:30N 49°33' W 000°20'918.9
2018-Dec-04 16:00N 49°24' W 000°15'612.8
2018-Dec-04 15:30N 49°17' W 000°15'0 0.1
2018-Dec-04 15:00N 49°17' W 000°15'0 0.0
2018-Dec-04 14:30N 49°17' W 000°15'0 0.0
2018-Dec-04 14:00N 49°17' W 000°15'3 5.7
2018-Dec-04 13:31N 49°20' W 000°15'917.1
2018-Dec-04 13:01N 49°29' W 000°17'1020.5
2018-Dec-04 12:31N 49°38' W 000°22'1020.1
2018-Dec-04 12:01N 49°48' W 000°27'1019.2
2018-Dec-04 11:31N 49°57' W 000°32'918.3
2018-Dec-04 11:01N 50°06' W 000°36'1618.4
2018-Dec-04 10:08N 50°20' W 000°47'218.8
2018-Dec-04 10:01N 50°22' W 000°48'918.7
2018-Dec-04 09:31N 50°31' W 000°54'918.4
2018-Dec-04 09:00N 50°40' W 000°59'815.9
2018-Dec-04 08:30N 50°46' W 001°06'2 4.5
2018-Dec-04 08:00N 50°49' W 001°06'0 0.0
2018-Dec-04 07:30N 50°49' W 001°06'0 0.0
2018-Dec-04 07:00N 50°49' W 001°06'0 0.8
2018-Dec-04 06:30N 50°49' W 001°06'510.4
2018-Dec-04 06:00N 50°44' W 001°03'714.4
2018-Dec-04 05:31N 50°37' W 000°59'815.5
2018-Dec-04 05:01N 50°30' W 000°57'815.4
2018-Dec-04 04:30N 50°22' W 000°57'1115.4
2018-Dec-04 03:48N 50°11' W 000°59'911.5
2018-Dec-04 03:02N 50°02' W 000°60'0 9.9
2018-Dec-04 03:00N 50°02' W 000°60'510.3
2018-Dec-04 02:30N 49°57' W 000°59'510.5
2018-Dec-04 02:00N 49°52' W 000°59'611.1
2018-Dec-04 01:31N 49°46' W 000°58'612.1
2018-Dec-04 01:00N 49°42' W 000°51'612.0
2018-Dec-04 00:30N 49°38' W 000°44'611.9
2018-Dec-04 00:00N 49°34' W 000°37'612.0
2018-Dec-03 23:30N 49°30' W 000°30'611.9
2018-Dec-03 23:00N 49°26' W 000°23'611.7
2018-Dec-03 22:30N 49°22' W 000°17'510.2
2018-Dec-03 22:01N 49°17' W 000°15'0 0.1
2018-Dec-03 21:30N 49°17' W 000°15'0 0.0
2018-Dec-03 21:00N 49°17' W 000°15'0 0.0
2018-Dec-03 20:30N 49°17' W 000°15'3 6.4
2018-Dec-03 20:00N 49°21' W 000°14'917.9
2018-Dec-03 19:31N 49°29' W 000°20'918.9
2018-Dec-03 19:01N 49°38' W 000°25'1019.0
2018-Dec-03 18:30N 49°47' W 000°29'1019.2
2018-Dec-03 18:01N 49°56' W 000°34'1019.3
2018-Dec-03 17:30N 50°05' W 000°39'1918.9
2018-Dec-03 16:30N 50°22' W 000°53'1019.2
2018-Dec-03 16:00N 50°30' W 001°01'917.5
2018-Dec-03 15:30N 50°38' W 001°04'612.7
2018-Dec-03 15:00N 50°45' W 001°05'4 7.4
2018-Dec-03 14:28N 50°49' W 001°06'  
Track history (hours):
 
Tides and Currents Weather Stations Pressure Air Temp Water Temp Dewpoint Dewpoint Depression Visibility Wind Speed Wind Dir Waves Ship Positions

Mont Saint Michel

Last reported at 2018-Dec-13 14:00 UTC. Time now 2018-Dec-13 14:20 UTC.
Position N 49°17' W 000°15'.

Length 173 m; beam 29 m.

Type: Ship. MMSI: 227023100.

Date/timePositionNaut miles runAvg speedWind from/ knotsBaromVisibWave heightAir tempDewpointWater temp
2018-Dec-13 14:00N 49°17' W 000°15'3 6.3
2018-Dec-13 13:31N 49°20' W 000°15'1019.5
2018-Dec-13 13:01N 49°30' W 000°18'1019.8
2018-Dec-13 12:31N 49°39' W 000°23'1020.1
2018-Dec-13 12:01N 49°49' W 000°28'1020.4
2018-Dec-13 11:30N 49°58' W 000°34'1020.5
2018-Dec-13 11:01N 50°08' W 000°40'1520.1
2018-Dec-13 10:17N 50°21' W 000°48'519.6
2018-Dec-13 10:01N 50°26' W 000°51'1019.6
2018-Dec-13 09:31N 50°36' W 000°57'816.9
2018-Dec-13 09:01N 50°43' W 001°02'612.0
2018-Dec-13 08:30N 50°49' W 001°06'0 0.5
2018-Dec-13 08:00N 50°49' W 001°06'0 0.0
2018-Dec-13 07:30N 50°49' W 001°06'0 0.0
2018-Dec-13 07:00N 50°49' W 001°06'1 1.8
2018-Dec-13 06:30N 50°48' W 001°07'611.8
2018-Dec-13 06:00N 50°43' W 001°02'816.4
2018-Dec-13 05:30N 50°35' W 000°59'814.9
2018-Dec-13 04:58N 50°27' W 000°56'715.0
2018-Dec-13 04:30N 50°20' W 000°53'815.7
2018-Dec-13 04:00N 50°14' W 000°47'815.9
2018-Dec-13 03:30N 50°07' W 000°41'714.2
2018-Dec-13 03:00N 50°00' W 000°37'611.1
2018-Dec-13 02:30N 49°55' W 000°34'611.0
2018-Dec-13 02:00N 49°50' W 000°31'510.9
2018-Dec-13 01:30N 49°45' W 000°28'510.8
2018-Dec-13 01:00N 49°40' W 000°25'510.9
2018-Dec-13 00:30N 49°35' W 000°22'510.9
2018-Dec-13 00:00N 49°30' W 000°19'510.7
2018-Dec-12 23:30N 49°25' W 000°17'510.1
2018-Dec-12 23:00N 49°20' W 000°14'2 4.7
2018-Dec-12 22:30N 49°17' W 000°15'0 0.0
2018-Dec-12 22:00N 49°17' W 000°15'0 0.0
2018-Dec-12 21:30N 49°17' W 000°15'0 0.0
2018-Dec-12 21:00N 49°17' W 000°15'0 0.0
2018-Dec-12 20:31N 49°17' W 000°15'4 8.8
2018-Dec-12 20:01N 49°22' W 000°15'1019.6
2018-Dec-12 19:31N 49°31' W 000°19'1019.8
2018-Dec-12 19:01N 49°40' W 000°25'1019.6
2018-Dec-12 18:30N 49°49' W 000°30'1019.4
2018-Dec-12 18:00N 49°59' W 000°36'1019.4
2018-Dec-12 17:31N 50°08' W 000°41'1519.4
2018-Dec-12 16:45N 50°21' W 000°50'519.8
2018-Dec-12 16:30N 50°26' W 000°53'919.2
2018-Dec-12 16:01N 50°35' W 000°57'918.0
2018-Dec-12 15:31N 50°43' W 001°02'612.2
2018-Dec-12 15:00N 50°49' W 001°07'1 1.1
2018-Dec-12 14:30N 50°49' W 001°06'0 0.0
2018-Dec-12 14:00N 50°49' W 001°06'0 0.0
2018-Dec-12 13:30N 50°49' W 001°06'1 2.5
2018-Dec-12 13:00N 50°48' W 001°07'510.3
2018-Dec-12 12:30N 50°43' W 001°02'816.6
2018-Dec-12 12:01N 50°36' W 000°57'918.3
2018-Dec-12 11:31N 50°27' W 000°51'1418.9
2018-Dec-12 10:46N 50°14' W 000°45'519.3
2018-Dec-12 10:31N 50°09' W 000°43'1020.7
2018-Dec-12 10:01N 49°59' W 000°38'1020.5
2018-Dec-12 09:30N 49°50' W 000°33'1020.5
2018-Dec-12 09:01N 49°40' W 000°27'1020.5
2018-Dec-12 08:31N 49°31' W 000°20'1020.5
2018-Dec-12 08:01N 49°21' W 000°15'4 7.7
2018-Dec-12 07:30N 49°17' W 000°15'0 0.0
2018-Dec-12 07:00N 49°17' W 000°15'0 0.0
2018-Dec-12 06:30N 49°17' W 000°15'0 0.0
2018-Dec-12 06:00N 49°17' W 000°15'0 0.3
2018-Dec-12 05:30N 49°17' W 000°15'713.9
2018-Dec-12 05:01N 49°24' W 000°17'714.7
2018-Dec-12 04:31N 49°31' W 000°22'815.0
2018-Dec-12 04:01N 49°38' W 000°26'817.0
2018-Dec-12 03:31N 49°46' W 000°30'917.1
2018-Dec-12 03:01N 49°54' W 000°34'917.4
2018-Dec-12 02:30N 50°02' W 000°39'1317.7
2018-Dec-12 01:47N 50°15' W 000°45'715.5
2018-Dec-12 01:19N 50°21' W 000°48'514.5
2018-Dec-12 01:00N 50°26' W 000°50'714.7
2018-Dec-12 00:31N 50°33' W 000°54'714.3
2018-Dec-12 00:01N 50°39' W 000°59'713.1
2018-Dec-11 23:30N 50°44' W 001°05'4 8.5
2018-Dec-11 23:00N 50°49' W 001°06'0 0.0
2018-Dec-11 22:30N 50°49' W 001°06'0 0.0
2018-Dec-11 22:00N 50°49' W 001°06'0 0.0
2018-Dec-11 21:30N 50°49' W 001°06'1 1.6
2018-Dec-11 21:00N 50°48' W 001°07'612.0
2018-Dec-11 20:30N 50°43' W 001°02'714.5
2018-Dec-11 20:00N 50°37' W 000°57'816.3
2018-Dec-11 19:30N 50°29' W 000°53'916.6
2018-Dec-11 18:58N 50°20' W 000°49'919.5
2018-Dec-11 18:30N 50°12' W 000°45'1019.7
2018-Dec-11 18:00N 50°02' W 000°41'1020.0
2018-Dec-11 17:30N 49°53' W 000°35'1020.1
2018-Dec-11 17:00N 49°44' W 000°29'1019.9
2018-Dec-11 16:30N 49°34' W 000°23'1019.6
2018-Dec-11 16:00N 49°25' W 000°17'816.4
2018-Dec-11 15:30N 49°17' W 000°15'0 0.2
2018-Dec-11 15:01N 49°17' W 000°15'0 0.0
2018-Dec-11 14:31N 49°17' W 000°15'0 0.0
2018-Dec-11 14:01N 49°17' W 000°15'0 0.2
2018-Dec-11 13:31N 49°17' W 000°15'816.7
2018-Dec-11 13:00N 49°26' W 000°16'918.9
2018-Dec-11 12:31N 49°34' W 000°21'1019.2
2018-Dec-11 12:01N 49°43' W 000°28'1019.0
2018-Dec-11 11:30N 49°52' W 000°34'1019.3
2018-Dec-11 11:00N 50°00' W 000°41'1020.7
2018-Dec-11 10:31N 50°09' W 000°48'1218.2
2018-Dec-11 09:49N 50°22' W 000°52'618.9
2018-Dec-11 09:31N 50°27' W 000°55'1020.0
2018-Dec-11 09:01N 50°37' W 000°59'816.8
2018-Dec-11 08:31N 50°45' W 001°05'4 8.4
2018-Dec-11 08:00N 50°49' W 001°06'0 0.0
2018-Dec-11 07:30N 50°49' W 001°06'0 0.0
2018-Dec-11 07:00N 50°49' W 001°06'0 0.7
2018-Dec-11 06:30N 50°49' W 001°06'611.1
2018-Dec-11 06:00N 50°44' W 001°02'816.4
2018-Dec-11 05:30N 50°36' W 000°58'612.6
2018-Dec-11 05:00N 50°30' W 000°55'611.8
2018-Dec-11 04:30N 50°24' W 000°53'611.7
2018-Dec-11 03:59N 50°18' W 000°50'612.2
2018-Dec-11 03:28N 50°12' W 000°47'612.5
2018-Dec-11 03:00N 50°07' W 000°43'612.6
2018-Dec-11 02:31N 50°02' W 000°38'612.3
2018-Dec-11 02:00N 49°56' W 000°34'612.1
2018-Dec-11 01:30N 49°50' W 000°31'611.8
2018-Dec-11 01:00N 49°45' W 000°29'611.6
2018-Dec-11 00:30N 49°39' W 000°26'611.4
2018-Dec-11 00:00N 49°34' W 000°22'611.3
2018-Dec-10 23:30N 49°29' W 000°19'510.2
2018-Dec-10 23:00N 49°24' W 000°16'510.8
2018-Dec-10 22:31N 49°19' W 000°15'1 2.9
2018-Dec-10 22:00N 49°17' W 000°15'0 0.0
2018-Dec-10 21:30N 49°17' W 000°15'0 0.0
2018-Dec-10 21:00N 49°17' W 000°15'713.7
2018-Dec-10 20:30N 49°24' W 000°15'1122.3
2018-Dec-10 20:00N 49°34' W 000°23'1121.2
2018-Dec-10 19:30N 49°45' W 000°25'1121.6
2018-Dec-10 19:00N 49°55' W 000°31'1121.2
2018-Dec-10 18:30N 50°04' W 000°38'1521.1
2018-Dec-10 17:48N 50°19' W 000°45'621.5
2018-Dec-10 17:30N 50°25' W 000°48'1021.1
2018-Dec-10 17:00N 50°35' W 000°53'1020.1
2018-Dec-10 16:30N 50°43' W 001°01'612.4
2018-Dec-10 16:00N 50°49' W 001°06'0 0.1
2018-Dec-10 15:30N 50°49' W 001°06'0 0.0
2018-Dec-10 15:00N 50°49' W 001°06'0 0.0
2018-Dec-10 14:30N 50°49' W 001°06'0 0.0
2018-Dec-10 14:00N 50°49' W 001°06'0 0.0
2018-Dec-10 13:30N 50°49' W 001°06'0 0.8
2018-Dec-10 13:00N 50°49' W 001°06'612.0
2018-Dec-10 12:31N 50°43' W 001°02'918.7
2018-Dec-10 12:00N 50°35' W 000°55'1020.0
2018-Dec-10 11:30N 50°26' W 000°49'1320.0
2018-Dec-10 10:52N 50°14' W 000°42'719.6
2018-Dec-10 10:30N 50°07' W 000°38'1019.8
2018-Dec-10 10:00N 49°58' W 000°34'1019.7
2018-Dec-10 09:31N 49°48' W 000°29'1019.6
2018-Dec-10 09:00N 49°39' W 000°24'1019.5
2018-Dec-10 08:30N 49°30' W 000°19'918.8
2018-Dec-10 08:00N 49°21' W 000°15'4 7.5
2018-Dec-10 07:30N 49°17' W 000°15'0 0.0
2018-Dec-10 07:00N 49°17' W 000°15'0 0.0
2018-Dec-10 06:30N 49°17' W 000°15'0 0.0
2018-Dec-10 06:00N 49°17' W 000°15'0 0.2
2018-Dec-10 05:30N 49°17' W 000°15'815.4
2018-Dec-10 05:00N 49°25' W 000°16'918.3
2018-Dec-10 04:30N 49°33' W 000°22'918.0
2018-Dec-10 04:00N 49°41' W 000°28'917.5
2018-Dec-10 03:30N 49°49' W 000°34'1717.1
2018-Dec-10 02:30N 50°04' W 000°46'1614.9
2018-Dec-10 01:24N 50°19' W 000°58'715.3
2018-Dec-10 00:57N 50°26' W 001°01'715.2
2018-Dec-10 00:30N 50°32' W 001°05'713.6
2018-Dec-10 00:00N 50°39' W 001°05'611.7
2018-Dec-09 23:30N 50°45' W 001°05'4 8.0
2018-Dec-09 23:00N 50°49' W 001°06'0 0.0
2018-Dec-09 22:30N 50°49' W 001°06'0 0.0
2018-Dec-09 22:00N 50°49' W 001°06'1 1.5
2018-Dec-09 21:30N 50°48' W 001°07'713.5
2018-Dec-09 21:01N 50°43' W 001°00'816.9
2018-Dec-09 20:31N 50°35' W 000°57'1118.9
2018-Dec-09 19:56N 50°25' W 000°53'918.9
2018-Dec-09 19:29N 50°16' W 000°49'918.8
2018-Dec-09 19:01N 50°08' W 000°46'918.9
2018-Dec-09 18:30N 49°58' W 000°43'1119.0
2018-Dec-09 17:56N 49°48' W 000°39'819.0
2018-Dec-09 17:31N 49°40' W 000°34'1019.4
2018-Dec-09 17:00N 49°32' W 000°26'1019.6
2018-Dec-09 16:31N 49°24' W 000°17'714.2
2018-Dec-09 16:00N 49°17' W 000°15'0 0.1
2018-Dec-09 15:31N 49°17' W 000°15'0 0.0
2018-Dec-09 15:01N 49°17' W 000°15'0 0.0
2018-Dec-09 14:31N 49°17' W 000°15'3 5.9
2018-Dec-09 14:01N 49°20' W 000°14'816.8
2018-Dec-09 13:31N 49°28' W 000°17'816.8
2018-Dec-09 13:00N 49°37' W 000°19'917.9
2018-Dec-09 12:31N 49°46' W 000°22'918.4
2018-Dec-09 12:00N 49°54' W 000°26'2719.4
2018-Dec-09 10:36N 50°18' W 000°46'1120.2
2018-Dec-09 10:04N 50°26' W 000°58'120.3
2018-Dec-09 10:00N 50°27' W 000°60'1019.2
2018-Dec-09 09:31N 50°35' W 001°07'714.1
2018-Dec-09 09:01N 50°41' W 001°03'714.3
2018-Dec-09 08:30N 50°48' W 001°07'1 2.0
2018-Dec-09 08:00N 50°49' W 001°06'0 0.0
2018-Dec-09 07:30N 50°49' W 001°06'0 0.0
2018-Dec-09 07:00N 50°49' W 001°06'0 0.7
2018-Dec-09 06:30N 50°49' W 001°06'611.4
2018-Dec-09 06:00N 50°44' W 001°02'815.6
2018-Dec-09 05:30N 50°36' W 000°59'816.2
2018-Dec-09 05:00N 50°28' W 001°01'916.1
2018-Dec-09 04:27N 50°19' W 001°01'716.1
2018-Dec-09 04:00N 50°12' W 001°03'714.7
2018-Dec-09 03:30N 50°05' W 001°04'713.4
2018-Dec-09 03:00N 49°58' W 001°06'713.9
2018-Dec-09 02:30N 49°51' W 001°08'714.2
2018-Dec-09 02:01N 49°44' W 001°09'713.8
2018-Dec-09 01:31N 49°40' W 001°00'713.6
2018-Dec-09 00:59N 49°37' W 000°51'612.9
2018-Dec-09 00:30N 49°34' W 000°42'612.3
2018-Dec-09 00:00N 49°32' W 000°33'611.9
2018-Dec-08 23:30N 49°28' W 000°26'611.8
2018-Dec-08 23:00N 49°24' W 000°19'612.3
2018-Dec-08 22:30N 49°19' W 000°15'1 2.9
2018-Dec-08 22:00N 49°17' W 000°15'0 0.0
2018-Dec-08 21:30N 49°17' W 000°15'0 0.0
2018-Dec-08 21:00N 49°17' W 000°15'0 0.0
2018-Dec-08 20:30N 49°17' W 000°15'2 3.4
2018-Dec-08 20:00N 49°19' W 000°15'918.6
2018-Dec-08 19:30N 49°27' W 000°21'1019.6
2018-Dec-08 19:00N 49°37' W 000°24'1020.1
2018-Dec-08 18:30N 49°46' W 000°31'1320.1
2018-Dec-08 17:51N 49°58' W 000°39'720.0
2018-Dec-08 17:30N 50°04' W 000°43'1720.0
2018-Dec-08 16:41N 50°20' W 000°54'420.0
2018-Dec-08 16:27N 50°24' W 000°56'919.6
2018-Dec-08 16:00N 50°32' W 001°02'1019.0
2018-Dec-08 15:31N 50°41' W 000°59'816.4
2018-Dec-08 15:00N 50°48' W 001°07'1 2.1
2018-Dec-08 14:30N 50°49' W 001°06'0 0.0
2018-Dec-08 14:00N 50°49' W 001°06'0 0.0
2018-Dec-08 13:30N 50°49' W 001°06'1 2.3
2018-Dec-08 13:00N 50°48' W 001°07'816.2
2018-Dec-08 12:30N 50°41' W 000°60'1019.7
2018-Dec-08 12:01N 50°32' W 000°54'1019.4
2018-Dec-08 11:30N 50°23' W 000°47'1019.3
2018-Dec-08 11:01N 50°14' W 000°42'918.4
2018-Dec-08 10:31N 50°05' W 000°37'918.0
2018-Dec-08 10:00N 49°57' W 000°33'917.7
2018-Dec-08 09:30N 49°48' W 000°29'918.4
2018-Dec-08 09:00N 49°39' W 000°25'918.8
2018-Dec-08 08:31N 49°31' W 000°20'918.8
2018-Dec-08 08:00N 49°22' W 000°15'4 8.9
2018-Dec-08 07:30N 49°17' W 000°15'0 0.0
2018-Dec-08 07:00N 49°17' W 000°15'0 0.0
2018-Dec-08 06:31N 49°17' W 000°15'0 0.0
2018-Dec-08 06:00N 49°17' W 000°15'0 0.2
2018-Dec-08 05:31N 49°17' W 000°15'714.0
2018-Dec-08 05:00N 49°24' W 000°15'816.5
2018-Dec-08 04:30N 49°32' W 000°19'816.4
2018-Dec-08 04:00N 49°40' W 000°23'816.3
2018-Dec-08 03:30N 49°47' W 000°28'816.0
2018-Dec-08 03:00N 49°55' W 000°33'714.5
2018-Dec-08 02:30N 50°02' W 000°37'613.2
2018-Dec-08 02:00N 50°08' W 000°40'2213.2
2018-Dec-08 00:23N 50°27' W 000°56'512.9
2018-Dec-08 00:00N 50°30' W 001°01'612.8
2018-Dec-07 23:30N 50°35' W 001°07'713.6
2018-Dec-07 23:00N 50°42' W 001°03'612.4
2018-Dec-07 22:30N 50°47' W 001°07'1 3.0
2018-Dec-07 22:00N 50°49' W 001°06'0 0.0
2018-Dec-07 21:30N 50°49' W 001°06'0 0.0
2018-Dec-07 21:00N 50°49' W 001°06'0 0.0
2018-Dec-07 20:30N 50°49' W 001°06'0 0.0
2018-Dec-07 20:00N 50°49' W 001°06'0 0.0
2018-Dec-07 19:30N 50°49' W 001°06'0 0.8
2018-Dec-07 19:00N 50°49' W 001°06'510.8
2018-Dec-07 18:30N 50°44' W 001°03'815.9
2018-Dec-07 18:00N 50°37' W 000°57'816.1
2018-Dec-07 17:30N 50°29' W 000°51'917.1
2018-Dec-07 17:00N 50°22' W 000°46'919.0
2018-Dec-07 16:30N 50°12' W 000°44'1019.0
2018-Dec-07 16:00N 50°03' W 000°39'1019.1
2018-Dec-07 15:30N 49°54' W 000°34'917.6
2018-Dec-07 15:00N 49°46' W 000°30'917.2
2018-Dec-07 14:30N 49°38' W 000°25'917.3
2018-Dec-07 14:00N 49°30' W 000°20'917.8
2018-Dec-07 13:30N 49°22' W 000°15'4 8.6
2018-Dec-07 13:00N 49°17' W 000°15'0 0.0
2018-Dec-07 12:30N 49°17' W 000°15'0 0.0
2018-Dec-07 12:00N 49°17' W 000°15'0 0.0
2018-Dec-07 11:30N 49°17' W 000°15'0 0.0
2018-Dec-07 11:00N 49°17' W 000°15'0 0.0
2018-Dec-07 10:30N 49°17' W 000°15'0 0.0
2018-Dec-07 10:00N 49°17' W 000°15'0 0.0
2018-Dec-07 09:30N 49°17' W 000°15'0 0.0
2018-Dec-07 09:00N 49°17' W 000°15'0 0.0
2018-Dec-07 08:30N 49°17' W 000°15'0 0.0
2018-Dec-07 08:00N 49°17' W 000°15'0 0.0
2018-Dec-07 07:30N 49°17' W 000°15'0 0.0
2018-Dec-07 07:00N 49°17' W 000°15'0 0.0
2018-Dec-07 06:30N 49°17' W 000°15'2 4.0
2018-Dec-07 06:01N 49°19' W 000°15'714.7
2018-Dec-07 05:30N 49°27' W 000°17'714.4
2018-Dec-07 05:00N 49°33' W 000°22'714.4
2018-Dec-07 04:30N 49°39' W 000°27'714.1
2018-Dec-07 04:00N 49°46' W 000°32'713.9
2018-Dec-07 03:31N 49°52' W 000°37'1413.9
2018-Dec-07 02:30N 50°05' W 000°45'2114.0
2018-Dec-07 01:02N 50°24' W 000°59'213.7
2018-Dec-07 00:55N 50°25' W 000°60'613.8
2018-Dec-07 00:30N 50°30' W 001°04'714.1
2018-Dec-07 00:00N 50°37' W 001°07'713.3
2018-Dec-06 23:30N 50°43' W 001°03'611.8
2018-Dec-06 23:00N 50°48' W 001°07'1 2.0
2018-Dec-06 22:30N 50°49' W 001°06'0 0.0
2018-Dec-06 22:00N 50°49' W 001°06'0 0.0
2018-Dec-06 21:30N 50°49' W 001°06'1 1.7
2018-Dec-06 21:00N 50°48' W 001°07'714.9
2018-Dec-06 20:30N 50°42' W 001°00'1019.7
2018-Dec-06 20:00N 50°32' W 000°56'1019.3
2018-Dec-06 19:30N 50°23' W 000°52'1019.6
2018-Dec-06 19:00N 50°14' W 000°48'1019.2
2018-Dec-06 18:30N 50°04' W 000°45'918.3
2018-Dec-06 18:00N 49°56' W 000°38'918.1
2018-Dec-06 17:30N 49°48' W 000°33'918.5
2018-Dec-06 17:00N 49°39' W 000°28'918.8
2018-Dec-06 16:30N 49°31' W 000°22'1019.1
2018-Dec-06 16:00N 49°22' W 000°15'5 9.6
2018-Dec-06 15:30N 49°17' W 000°15'0 0.0
2018-Dec-06 15:01N 49°17' W 000°15'0 0.0
2018-Dec-06 14:31N 49°17' W 000°15'0 0.0
2018-Dec-06 14:00N 49°17' W 000°15'2 4.6
2018-Dec-06 13:30N 49°20' W 000°14'917.8
2018-Dec-06 13:01N 49°28' W 000°17'917.7
2018-Dec-06 12:30N 49°36' W 000°23'918.6
2018-Dec-06 12:00N 49°45' W 000°30'1019.4
2018-Dec-06 11:30N 49°53' W 000°37'1019.8
2018-Dec-06 11:00N 50°02' W 000°42'1120.0
2018-Dec-06 10:28N 50°13' W 000°47'1219.9
2018-Dec-06 09:50N 50°25' W 000°52'720.2
2018-Dec-06 09:30N 50°31' W 000°56'1019.3
2018-Dec-06 09:00N 50°40' W 000°59'816.7
2018-Dec-06 08:30N 50°47' W 001°07'1 2.7
2018-Dec-06 08:00N 50°49' W 001°06'0 0.0
2018-Dec-06 07:30N 50°49' W 001°06'0 0.0
2018-Dec-06 07:00N 50°49' W 001°06'1 2.4
2018-Dec-06 06:30N 50°48' W 001°07'612.2
2018-Dec-06 06:00N 50°43' W 001°00'816.2
2018-Dec-06 05:31N 50°35' W 000°57'611.1
2018-Dec-06 05:00N 50°30' W 000°54'510.4
2018-Dec-06 04:30N 50°25' W 000°51'610.9
2018-Dec-06 03:58N 50°20' W 000°48'511.1
2018-Dec-06 03:30N 50°15' W 000°45'1111.3
2018-Dec-06 02:30N 50°04' W 000°39'510.9
2018-Dec-06 02:00N 49°59' W 000°37'611.1
2018-Dec-06 01:30N 49°54' W 000°35'611.4
2018-Dec-06 01:01N 49°48' W 000°32'611.7
2018-Dec-06 00:30N 49°43' W 000°28'611.6
2018-Dec-06 00:00N 49°38' W 000°25'611.4
2018-Dec-05 23:30N 49°32' W 000°21'611.3
2018-Dec-05 23:00N 49°27' W 000°17'611.1
2018-Dec-05 22:30N 49°22' W 000°15'5 9.2
2018-Dec-05 22:00N 49°17' W 000°15'0 0.0
2018-Dec-05 21:30N 49°17' W 000°15'0 0.0
2018-Dec-05 21:00N 49°17' W 000°15'0 0.0
2018-Dec-05 20:30N 49°17' W 000°15'3 7.0
2018-Dec-05 20:00N 49°21' W 000°14'918.0
2018-Dec-05 19:30N 49°30' W 000°15'917.9
2018-Dec-05 19:00N 49°38' W 000°21'918.6
2018-Dec-05 18:30N 49°47' W 000°27'918.9
2018-Dec-05 18:00N 49°55' W 000°32'1019.4
2018-Dec-05 17:30N 50°04' W 000°38'1219.2
2018-Dec-05 16:54N 50°15' W 000°46'1018.6
2018-Dec-05 16:23N 50°24' W 000°51'718.4
2018-Dec-05 16:00N 50°30' W 000°54'917.9
2018-Dec-05 15:30N 50°39' W 000°58'816.2
2018-Dec-05 15:01N 50°46' W 001°05'3 6.1
2018-Dec-05 14:30N 50°49' W 001°06'0 0.0
2018-Dec-05 14:00N 50°49' W 001°06'0 0.0
2018-Dec-05 13:30N 50°49' W 001°06'1 1.9
2018-Dec-05 13:00N 50°48' W 001°07'612.6
2018-Dec-05 12:30N 50°43' W 001°02'917.8
2018-Dec-05 12:00N 50°34' W 000°57'1019.2
2018-Dec-05 11:30N 50°25' W 000°51'1118.5
2018-Dec-05 10:56N 50°15' W 000°48'818.8
2018-Dec-05 10:30N 50°07' W 000°44'919.0
2018-Dec-05 10:00N 49°59' W 000°37'918.9
2018-Dec-05 09:30N 49°50' W 000°32'918.7
2018-Dec-05 09:00N 49°42' W 000°26'918.7
2018-Dec-05 08:30N 49°33' W 000°21'918.6
2018-Dec-05 08:00N 49°24' W 000°16'713.8
2018-Dec-05 07:30N 49°17' W 000°15'0 0.1
2018-Dec-05 07:00N 49°17' W 000°15'0 0.0
2018-Dec-05 06:30N 49°17' W 000°15'0 0.0
2018-Dec-05 06:00N 49°17' W 000°15'0 0.2
2018-Dec-05 05:30N 49°17' W 000°15'816.6
2018-Dec-05 05:00N 49°26' W 000°15'1019.1
2018-Dec-05 04:30N 49°35' W 000°20'918.8
2018-Dec-05 04:01N 49°43' W 000°26'917.4
2018-Dec-05 03:30N 49°51' W 000°32'714.8
2018-Dec-05 03:00N 49°58' W 000°36'714.4
2018-Dec-05 02:30N 50°04' W 000°41'814.3
2018-Dec-05 01:58N 50°11' W 000°46'1214.7
2018-Dec-05 01:11N 50°23' W 000°51'314.2
2018-Dec-05 01:00N 50°25' W 000°52'713.7
2018-Dec-05 00:30N 50°32' W 000°55'713.7
2018-Dec-05 00:00N 50°38' W 000°58'713.1
2018-Dec-04 23:30N 50°44' W 001°03'5 9.1
2018-Dec-04 23:00N 50°48' W 001°07'1 2.2
2018-Dec-04 22:30N 50°49' W 001°06'0 0.0
2018-Dec-04 22:00N 50°49' W 001°06'0 0.0
2018-Dec-04 21:30N 50°49' W 001°06'1 1.9
2018-Dec-04 21:00N 50°48' W 001°07'5 9.2
2018-Dec-04 20:30N 50°44' W 001°04'918.1
2018-Dec-04 20:01N 50°36' W 000°57'917.7
2018-Dec-04 19:30N 50°28' W 000°51'1519.7
2018-Dec-04 18:46N 50°14' W 000°43'519.7
2018-Dec-04 18:30N 50°09' W 000°40'1019.4
2018-Dec-04 18:00N 50°00' W 000°35'1019.3
2018-Dec-04 17:30N 49°51' W 000°30'1019.7
2018-Dec-04 17:00N 49°42' W 000°25'1019.9
2018-Dec-04 16:30N 49°33' W 000°20'918.9
2018-Dec-04 16:00N 49°24' W 000°15'612.8
2018-Dec-04 15:30N 49°17' W 000°15'0 0.1
2018-Dec-04 15:00N 49°17' W 000°15'0 0.0
2018-Dec-04 14:30N 49°17' W 000°15'0 0.0
2018-Dec-04 14:00N 49°17' W 000°15'3 5.7
2018-Dec-04 13:31N 49°20' W 000°15'917.1
2018-Dec-04 13:01N 49°29' W 000°17'1020.5
2018-Dec-04 12:31N 49°38' W 000°22'1020.1
2018-Dec-04 12:01N 49°48' W 000°27'1019.2
2018-Dec-04 11:31N 49°57' W 000°32'918.3
2018-Dec-04 11:01N 50°06' W 000°36'1618.4
2018-Dec-04 10:08N 50°20' W 000°47'218.8
2018-Dec-04 10:01N 50°22' W 000°48'918.7
2018-Dec-04 09:31N 50°31' W 000°54'918.4
2018-Dec-04 09:00N 50°40' W 000°59'815.9
2018-Dec-04 08:30N 50°46' W 001°06'2 4.5
2018-Dec-04 08:00N 50°49' W 001°06'0 0.0
2018-Dec-04 07:30N 50°49' W 001°06'0 0.0
2018-Dec-04 07:00N 50°49' W 001°06'0 0.8
2018-Dec-04 06:30N 50°49' W 001°06'510.4
2018-Dec-04 06:00N 50°44' W 001°03'714.4
2018-Dec-04 05:31N 50°37' W 000°59'815.5
2018-Dec-04 05:01N 50°30' W 000°57'815.4
2018-Dec-04 04:30N 50°22' W 000°57'1115.4
2018-Dec-04 03:48N 50°11' W 000°59'911.5
2018-Dec-04 03:02N 50°02' W 000°60'0 9.9
2018-Dec-04 03:00N 50°02' W 000°60'510.3
2018-Dec-04 02:30N 49°57' W 000°59'510.5
2018-Dec-04 02:00N 49°52' W 000°59'611.1
2018-Dec-04 01:31N 49°46' W 000°58'612.1
2018-Dec-04 01:00N 49°42' W 000°51'612.0
2018-Dec-04 00:30N 49°38' W 000°44'611.9
2018-Dec-04 00:00N 49°34' W 000°37'612.0
2018-Dec-03 23:30N 49°30' W 000°30'611.9
2018-Dec-03 23:00N 49°26' W 000°23'611.7
2018-Dec-03 22:30N 49°22' W 000°17'510.2
2018-Dec-03 22:01N 49°17' W 000°15'0 0.1
2018-Dec-03 21:30N 49°17' W 000°15'0 0.0
2018-Dec-03 21:00N 49°17' W 000°15'0 0.0
2018-Dec-03 20:30N 49°17' W 000°15'3 6.4
2018-Dec-03 20:00N 49°21' W 000°14'917.9
2018-Dec-03 19:31N 49°29' W 000°20'918.9
2018-Dec-03 19:01N 49°38' W 000°25'1019.0
2018-Dec-03 18:30N 49°47' W 000°29'1019.2
2018-Dec-03 18:01N 49°56' W 000°34'1019.3
2018-Dec-03 17:30N 50°05' W 000°39'1918.9
2018-Dec-03 16:30N 50°22' W 000°53'1019.2
2018-Dec-03 16:00N 50°30' W 001°01'917.5
2018-Dec-03 15:30N 50°38' W 001°04'612.7
2018-Dec-03 15:00N 50°45' W 001°05'4 7.4
2018-Dec-03 14:28N 50°49' W 001°06'  

Dump ship's entire track history